Pagrindinis puslapis
METAR-TAF:

METAR-TAF

Oro uostai :

Palembangas, Indonezija

platuma: 02-54S, ilguma: 104-42E, Aukštis: 10 m

Dabartinis oras

Ataskaita buvo paskelbta 36 minutes, ne 09:30 UTC
Ramus vėjas
Temperatūra 27°C
Drėgmė 89%
Slėgis 1008 hPa
Matomumas 10 km arba daugiau
Mažai debesys ne aukštis 1000 ft, Liūtiniai kamuoliniai debesys.
Su prošvaistėmis ne aukštis 1000 ft

METAR: WIPP 090930Z 00000KT 9999 FEW010CB BKN010 27/25 Q1008 RMKCB TO SE

Laikas: 17:06 (10:06 UTC)

Prognozė

Ataskaita buvo paskelbta 5 valandos ir 6 minutes, ne 05:00 UTC
Prognozė galioja nuo 09 metu 06 UTC su 10 metu 06 UTC
Vėjas 5 kt iš Šiaurės Vakarų
Matomumas 10 km arba daugiau
Išsisklaidę debesys ne aukštis 1000 ft
Laikinai
nuo 09 metu 07 UTC su 09 metu 11 UTC
Matomumas: 3000 m
Mažai debesys ne aukštis 1000 ft, Liūtiniai kamuoliniai debesys.
Su prošvaistėmis ne aukštis 1100 ft
perkūnija, lietus
Laikinai
nuo 09 metu 21 UTC su 09 metu 24 UTC
Matomumas: 3000 m
rūkana

TAF: WIPP 090500Z 0906/1006 31005KT 9999 SCT010 TEMPO 0907/0911 3000 TSRA FEW010CB BKN011 TEMPO 0921/0924 3000 BR

Orai ataskaitas ir orų prognozės (METAR, TAF).

turimą stotys yra geltonos ir raudonos taškus žemėlapyje.

Perkelti pele per norėdami pamatyti stoties vardą.

Tada spustelėkite, norėdami matyti oro stebėjimo ir prognozės.

Norėdami pakeisti žemėlapį: spustelėkite ant žalios mygtukų su juodo kryžiaus žemyn,; žalią mygtuką su brūkšneliu, jei norite nutolinti; arba žalių rodyklių gretimoms žemėlapius.


METAR-TAF: